createdAt,value
2023-05-21T00:00:45.376Z,29.32
2023-05-21T00:01:45.332Z,29.27
2023-05-21T00:02:45.387Z,29.31
2023-05-21T00:03:45.495Z,29.33
2023-05-21T00:04:45.323Z,29.37
2023-05-21T00:05:45.363Z,29.43
2023-05-21T00:06:45.310Z,29.43
2023-05-21T00:07:45.304Z,29.40
2023-05-21T00:08:45.297Z,29.32
2023-05-21T00:09:45.305Z,29.26
2023-05-21T00:10:45.288Z,29.26
2023-05-21T00:11:45.279Z,29.26
2023-05-21T00:12:45.275Z,29.28
2023-05-21T00:13:45.273Z,29.23
2023-05-21T00:14:45.246Z,29.23
2023-05-21T00:15:45.272Z,29.26
2023-05-21T00:16:45.343Z,29.24
2023-05-21T00:17:45.271Z,29.27
2023-05-21T00:18:45.279Z,29.33
2023-05-21T00:19:45.235Z,29.34
2023-05-21T00:20:45.209Z,29.36
2023-05-21T00:21:45.217Z,29.43
2023-05-21T00:22:45.188Z,29.45
2023-05-21T00:23:45.189Z,29.47
2023-05-21T00:24:45.189Z,29.49
2023-05-21T00:25:45.183Z,29.49
2023-05-21T00:26:45.168Z,29.53
2023-05-21T00:27:45.179Z,29.60
2023-05-21T00:28:45.201Z,29.56
2023-05-21T00:29:45.165Z,29.57
2023-05-21T00:30:45.140Z,29.52
2023-05-21T00:31:45.199Z,29.46
2023-05-21T00:32:45.154Z,29.50
2023-05-21T00:33:45.125Z,29.55
2023-05-21T00:34:45.134Z,29.49
2023-05-21T00:35:45.121Z,29.48
2023-05-21T00:36:45.106Z,29.50
2023-05-21T00:37:45.086Z,29.48
2023-05-21T00:38:45.077Z,29.49
2023-05-21T00:39:45.067Z,29.55
2023-05-21T00:40:45.102Z,29.57
2023-05-21T00:41:45.069Z,29.61
2023-05-21T00:42:45.052Z,29.61
2023-05-21T00:43:45.049Z,29.72
2023-05-21T00:44:45.039Z,29.64
2023-05-21T00:45:45.092Z,29.68
2023-05-21T00:46:45.040Z,29.70
2023-05-21T00:47:45.105Z,29.63
2023-05-21T00:48:45.046Z,29.70
2023-05-21T00:49:45.027Z,29.71
2023-05-21T00:50:45.024Z,29.73
2023-05-21T00:51:45.013Z,29.75
2023-05-21T00:52:44.996Z,29.69
2023-05-21T00:53:44.977Z,29.74
2023-05-21T00:54:44.974Z,29.74
2023-05-21T00:55:44.977Z,29.74
2023-05-21T00:56:44.970Z,29.75
2023-05-21T00:57:44.951Z,29.79
2023-05-21T00:58:44.960Z,29.78
2023-05-21T00:59:44.952Z,29.79
2023-05-21T01:00:44.955Z,29.79
2023-05-21T01:01:45.086Z,29.79
2023-05-21T01:02:45.001Z,29.78
2023-05-21T01:03:44.936Z,29.82
2023-05-21T01:04:44.909Z,29.86
2023-05-21T01:05:44.897Z,29.82
2023-05-21T01:06:44.901Z,29.80
2023-05-21T01:07:44.874Z,29.79
2023-05-21T01:08:44.895Z,29.80
2023-05-21T01:09:45.002Z,29.84
2023-05-21T01:10:44.874Z,29.84
2023-05-21T01:11:44.895Z,29.89
2023-05-21T01:12:44.843Z,29.84
2023-05-21T01:13:44.851Z,29.92
2023-05-21T01:14:44.849Z,29.91
2023-05-21T01:15:44.826Z,29.99
2023-05-21T01:16:44.870Z,29.95
2023-05-21T01:17:44.849Z,29.98
2023-05-21T01:18:44.943Z,29.95
2023-05-21T01:19:44.923Z,29.93
2023-05-21T01:20:44.791Z,30.03
2023-05-21T01:21:44.785Z,30.00
2023-05-21T01:22:44.774Z,29.99
2023-05-21T01:23:44.770Z,30.04
2023-05-21T01:24:44.779Z,29.99
2023-05-21T01:25:44.789Z,29.96
2023-05-21T01:26:44.757Z,29.90
2023-05-21T01:27:44.756Z,29.91
2023-05-21T01:28:44.753Z,29.90
2023-05-21T01:29:44.784Z,29.96
2023-05-21T01:30:44.716Z,29.92
2023-05-21T01:31:44.730Z,29.91
2023-05-21T01:32:44.804Z,29.91
2023-05-21T01:33:44.756Z,29.93
2023-05-21T01:34:44.692Z,29.96
2023-05-21T01:35:44.731Z,29.91
2023-05-21T01:36:44.732Z,29.91
2023-05-21T01:37:44.788Z,30.01
2023-05-21T01:38:44.838Z,30.00
2023-05-21T01:39:44.926Z,30.00
2023-05-21T01:40:44.928Z,30.05
2023-05-21T01:41:44.958Z,30.05
2023-05-21T01:42:44.897Z,30.12
2023-05-21T01:43:44.903Z,30.13
2023-05-21T01:44:44.904Z,30.05
2023-05-21T01:45:44.891Z,30.04
2023-05-21T01:46:44.974Z,30.01
2023-05-21T01:47:44.946Z,29.96
2023-05-21T01:48:44.868Z,29.94
2023-05-21T01:49:44.874Z,29.91
2023-05-21T01:50:44.876Z,29.96
2023-05-21T01:51:44.904Z,29.96
2023-05-21T01:52:44.854Z,29.94
2023-05-21T01:53:44.862Z,29.93
2023-05-21T01:54:44.858Z,29.96
2023-05-21T01:55:44.872Z,29.96
2023-05-21T01:56:44.862Z,30.02
2023-05-21T01:57:44.857Z,30.02
2023-05-21T01:58:44.836Z,30.04
2023-05-21T01:59:44.929Z,30.08
2023-05-21T02:00:44.855Z,30.03
2023-05-21T02:01:44.888Z,30.14
2023-05-21T02:02:44.866Z,30.12
2023-05-21T02:03:44.920Z,30.17
2023-05-21T02:04:44.838Z,30.12
2023-05-21T02:05:44.850Z,30.16
2023-05-21T02:06:44.838Z,30.21
2023-05-21T02:07:44.838Z,30.15
2023-05-21T02:08:44.841Z,30.16
2023-05-21T02:09:44.863Z,30.19
2023-05-21T02:10:44.854Z,30.17
2023-05-21T02:11:44.848Z,30.13
2023-05-21T02:12:44.878Z,30.15
2023-05-21T02:13:44.840Z,30.15
2023-05-21T02:14:44.863Z,30.13
2023-05-21T02:15:44.877Z,30.13
2023-05-21T02:16:44.971Z,30.12
2023-05-21T02:17:45.033Z,30.11
2023-05-21T02:18:45.021Z,30.08
2023-05-21T02:19:44.979Z,30.14
2023-05-21T02:20:44.981Z,30.15
2023-05-21T02:21:44.987Z,30.17
2023-05-21T02:22:44.993Z,30.17
2023-05-21T02:23:44.992Z,30.21
2023-05-21T02:24:45.004Z,30.20
2023-05-21T02:25:44.985Z,30.19
2023-05-21T02:26:44.989Z,30.20
2023-05-21T02:27:44.995Z,30.19
2023-05-21T02:28:45.006Z,30.20
2023-05-21T02:29:45.020Z,30.22
2023-05-21T02:30:45.038Z,30.26
2023-05-21T02:31:45.045Z,30.26
2023-05-21T02:32:45.202Z,30.24
2023-05-21T02:33:45.072Z,30.24
2023-05-21T02:34:45.056Z,30.28
2023-05-21T02:35:45.100Z,30.28
2023-05-21T02:36:45.161Z,30.28
2023-05-21T02:37:45.225Z,30.24
2023-05-21T02:38:45.242Z,30.26
2023-05-21T02:39:45.255Z,30.29
2023-05-21T02:40:45.267Z,30.36
2023-05-21T02:41:45.268Z,30.32
2023-05-21T02:42:45.271Z,30.27
2023-05-21T02:43:45.269Z,30.28
2023-05-21T02:44:45.283Z,30.31
2023-05-21T02:45:45.326Z,30.33
2023-05-21T02:46:45.284Z,30.33
2023-05-21T02:47:45.335Z,30.31
2023-05-21T02:48:45.285Z,30.40
2023-05-21T02:49:45.288Z,30.39
2023-05-21T02:50:45.293Z,30.35
2023-05-21T02:51:45.313Z,30.35
2023-05-21T02:52:45.303Z,30.32
2023-05-21T02:53:45.311Z,30.31
2023-05-21T02:54:45.340Z,30.26
2023-05-21T02:55:45.341Z,30.28
2023-05-21T02:56:45.333Z,30.24
2023-05-21T02:57:45.347Z,30.29
2023-05-21T02:58:45.347Z,30.28
2023-05-21T02:59:45.370Z,30.31
2023-05-21T03:00:45.829Z,30.31
2023-05-21T03:01:45.486Z,30.31
2023-05-21T03:02:45.462Z,30.33
2023-05-21T03:03:45.492Z,30.29
2023-05-21T03:04:45.420Z,30.29
2023-05-21T03:05:45.429Z,30.34
2023-05-21T03:06:45.420Z,30.28
2023-05-21T03:07:45.459Z,30.34
2023-05-21T03:08:45.458Z,30.32
2023-05-21T03:09:45.467Z,30.33
2023-05-21T03:10:45.476Z,30.30
2023-05-21T03:11:45.480Z,30.34
2023-05-21T03:12:45.483Z,30.33
2023-05-21T03:13:45.552Z,30.26
2023-05-21T03:14:45.496Z,30.34
2023-05-21T03:15:45.534Z,30.34
2023-05-21T03:16:45.574Z,30.29
2023-05-21T03:17:45.591Z,30.32
2023-05-21T03:18:45.586Z,30.31
2023-05-21T03:19:45.565Z,30.33
2023-05-21T03:20:45.591Z,30.33
2023-05-21T03:21:45.585Z,30.30
2023-05-21T03:22:45.616Z,30.26
2023-05-21T03:23:45.615Z,30.31
2023-05-21T03:24:45.605Z,30.38
2023-05-21T03:25:45.612Z,30.33
2023-05-21T03:26:45.618Z,30.33
2023-05-21T03:27:45.640Z,30.38
2023-05-21T03:28:45.630Z,30.36
2023-05-21T03:29:45.666Z,30.34
2023-05-21T03:30:45.679Z,30.41
2023-05-21T03:31:45.696Z,30.42
2023-05-21T03:32:45.723Z,30.47
2023-05-21T03:33:45.702Z,30.49
2023-05-21T03:34:45.698Z,30.46
2023-05-21T03:35:45.732Z,30.46
2023-05-21T03:36:45.715Z,30.48
2023-05-21T03:37:45.730Z,30.50
2023-05-21T03:38:45.749Z,30.53
2023-05-21T03:39:45.739Z,30.54
2023-05-21T03:40:45.764Z,30.49
2023-05-21T03:41:45.760Z,30.50
2023-05-21T03:42:45.808Z,30.49
2023-05-21T03:43:45.764Z,30.47
2023-05-21T03:44:45.793Z,30.43
2023-05-21T03:45:45.820Z,30.43
2023-05-21T03:46:45.786Z,30.46
2023-05-21T03:47:45.870Z,30.49
2023-05-21T03:48:45.824Z,30.47
2023-05-21T03:49:45.842Z,30.55
2023-05-21T03:50:45.840Z,30.46
2023-05-21T03:51:45.828Z,30.51
2023-05-21T03:52:45.845Z,30.42
2023-05-21T03:53:45.866Z,30.48
2023-05-21T03:54:45.857Z,30.45
2023-05-21T03:55:45.889Z,30.51
2023-05-21T03:56:45.898Z,30.52
2023-05-21T03:57:45.907Z,30.53
2023-05-21T03:58:45.918Z,30.52
2023-05-21T03:59:45.921Z,30.48
2023-05-21T04:00:45.953Z,30.55
2023-05-21T04:01:45.941Z,30.50
2023-05-21T04:02:46.051Z,30.53
2023-05-21T04:03:46.007Z,30.52
2023-05-21T04:04:46.156Z,30.54
2023-05-21T04:05:46.012Z,30.55
2023-05-21T04:06:45.987Z,30.54
2023-05-21T04:07:45.998Z,30.54
2023-05-21T04:08:46.020Z,30.50
2023-05-21T04:09:46.035Z,30.50
2023-05-21T04:10:46.033Z,30.47
2023-05-21T04:11:46.040Z,30.53
2023-05-21T04:12:46.067Z,30.49
2023-05-21T04:13:46.080Z,30.51
2023-05-21T04:14:46.090Z,30.51
2023-05-21T04:15:46.142Z,30.51
2023-05-21T04:16:46.092Z,30.53
2023-05-21T04:17:46.150Z,30.52
2023-05-21T04:18:46.204Z,30.54
2023-05-21T04:19:46.132Z,30.55
2023-05-21T04:20:46.151Z,30.51
2023-05-21T04:21:46.157Z,30.57
2023-05-21T04:22:46.160Z,30.53
2023-05-21T04:23:46.237Z,30.56
2023-05-21T04:24:46.155Z,30.52
2023-05-21T04:25:46.187Z,30.54
2023-05-21T04:26:46.197Z,30.58
2023-05-21T04:27:46.189Z,30.55
2023-05-21T04:28:46.194Z,30.58
2023-05-21T04:29:46.238Z,30.54
2023-05-21T04:30:46.238Z,30.56
2023-05-21T04:31:46.350Z,30.53
2023-05-21T04:32:46.297Z,30.51
2023-05-21T04:33:46.339Z,30.57
2023-05-21T04:34:46.294Z,30.55
2023-05-21T04:35:46.263Z,30.55
2023-05-21T04:36:46.292Z,30.58
2023-05-21T04:37:46.276Z,30.63
2023-05-21T04:38:46.302Z,30.57
2023-05-21T04:39:46.278Z,30.55
2023-05-21T04:40:46.300Z,30.57
2023-05-21T04:41:46.301Z,30.58
2023-05-21T04:42:46.320Z,30.61
2023-05-21T04:43:46.305Z,30.60
2023-05-21T04:44:46.331Z,30.56
2023-05-21T04:45:46.336Z,30.57
2023-05-21T04:46:46.418Z,30.54
2023-05-21T04:47:46.380Z,30.52
2023-05-21T04:48:46.349Z,30.52
2023-05-21T04:49:46.349Z,30.54
2023-05-21T04:50:46.383Z,30.53
2023-05-21T04:51:46.343Z,30.53
2023-05-21T04:52:46.371Z,30.53
2023-05-21T04:53:46.349Z,30.51
2023-05-21T04:54:46.350Z,30.50
2023-05-21T04:55:46.354Z,30.47
2023-05-21T04:56:46.377Z,30.43
2023-05-21T04:57:46.368Z,30.42
2023-05-21T04:58:46.372Z,30.45
2023-05-21T04:59:46.368Z,30.51
2023-05-21T05:00:46.417Z,30.50
2023-05-21T05:01:46.365Z,30.47
2023-05-21T05:02:46.458Z,30.47
2023-05-21T05:03:46.449Z,30.49
2023-05-21T05:04:46.350Z,30.45
2023-05-21T05:05:46.367Z,30.43
2023-05-21T05:06:46.354Z,30.51
2023-05-21T05:07:46.345Z,30.49
2023-05-21T05:08:46.367Z,30.48
2023-05-21T05:09:46.353Z,30.46
2023-05-21T05:10:46.382Z,30.49
2023-05-21T05:11:46.428Z,30.43
2023-05-21T05:12:46.452Z,30.47
2023-05-21T05:13:46.492Z,30.47
2023-05-21T05:14:46.497Z,30.47
2023-05-21T05:16:46.528Z,30.51
2023-05-21T05:17:46.545Z,30.54
2023-05-21T05:18:46.572Z,30.56
2023-05-21T05:19:46.526Z,30.63
2023-05-21T05:20:46.548Z,30.62
2023-05-21T05:21:46.574Z,30.63
2023-05-21T05:22:46.590Z,30.60
2023-05-21T05:23:46.621Z,30.61
2023-05-21T05:24:46.663Z,30.62
2023-05-21T05:25:46.724Z,30.69
2023-05-21T05:26:46.763Z,30.58
2023-05-21T05:27:46.829Z,30.59
2023-05-21T05:28:46.871Z,30.67
2023-05-21T05:29:46.938Z,30.47
2023-05-21T05:30:47.098Z,30.36
2023-05-21T05:31:47.060Z,30.55
2023-05-21T05:32:47.261Z,30.30
2023-05-21T05:33:47.200Z,30.48
2023-05-21T05:34:47.256Z,30.22
2023-05-21T05:35:47.332Z,30.13
2023-05-21T05:36:47.380Z,30.16
2023-05-21T05:37:47.425Z,30.04
2023-05-21T05:38:47.503Z,30.00
2023-05-21T05:39:47.569Z,29.95
2023-05-21T05:40:47.625Z,29.92
2023-05-21T05:41:47.680Z,29.96
2023-05-21T05:42:47.758Z,29.90
2023-05-21T05:43:47.792Z,29.88
2023-05-21T05:44:47.858Z,29.88
2023-05-21T05:45:47.938Z,29.91
2023-05-21T05:46:48.006Z,29.87
2023-05-21T05:47:48.074Z,29.87
2023-05-21T05:48:48.066Z,29.89
2023-05-21T05:49:48.127Z,29.85
2023-05-21T05:50:48.178Z,29.86
2023-05-21T05:51:48.221Z,29.81
2023-05-21T05:52:48.263Z,29.81
2023-05-21T05:53:48.309Z,29.84
2023-05-21T05:54:48.385Z,29.81
2023-05-21T05:55:48.424Z,29.83
2023-05-21T05:56:48.469Z,29.80
2023-05-21T05:57:48.511Z,29.83
2023-05-21T05:58:48.555Z,29.82
2023-05-21T05:59:48.589Z,29.86
2023-05-21T06:00:48.636Z,29.79
2023-05-21T06:01:48.677Z,29.76
2023-05-21T06:02:48.881Z,29.77
2023-05-21T06:03:48.888Z,29.80
2023-05-21T06:04:48.810Z,29.78
2023-05-21T06:05:48.897Z,29.85
2023-05-21T06:06:48.910Z,29.82
2023-05-21T06:07:48.935Z,29.85
2023-05-21T06:08:48.957Z,29.79
2023-05-21T06:09:49.006Z,29.80
2023-05-21T06:10:49.046Z,29.75
2023-05-21T06:11:49.087Z,29.80
2023-05-21T06:12:49.145Z,29.84
2023-05-21T06:13:49.178Z,29.86
2023-05-21T06:14:49.228Z,29.79
2023-05-21T06:15:49.289Z,29.81
2023-05-21T06:16:49.298Z,29.79
2023-05-21T06:17:49.351Z,29.75
2023-05-21T06:18:49.419Z,29.79
2023-05-21T06:19:49.396Z,29.82
2023-05-21T06:20:49.437Z,29.87
2023-05-21T06:21:49.463Z,29.82
2023-05-21T06:22:49.511Z,29.82
2023-05-21T06:23:49.545Z,29.83
2023-05-21T06:24:49.581Z,29.82
2023-05-21T06:25:49.630Z,29.86
2023-05-21T06:26:49.655Z,29.83
2023-05-21T06:27:49.676Z,29.81
2023-05-21T06:28:49.739Z,29.78
2023-05-21T06:29:49.733Z,29.82
2023-05-21T06:30:49.771Z,29.82
2023-05-21T06:31:49.792Z,29.81
2023-05-21T06:32:49.879Z,29.91
2023-05-21T06:33:49.902Z,29.77
2023-05-21T06:34:49.871Z,29.84
2023-05-21T06:35:49.897Z,29.76
2023-05-21T06:36:49.933Z,29.80
2023-05-21T06:37:49.948Z,29.83
2023-05-21T06:38:49.981Z,29.72
2023-05-21T06:39:50.016Z,29.77
2023-05-21T06:40:50.042Z,29.77
2023-05-21T06:41:50.030Z,29.74
2023-05-21T06:42:50.032Z,29.74
2023-05-21T06:43:50.053Z,29.73
2023-05-21T06:44:50.076Z,29.72
2023-05-21T06:45:50.118Z,29.80
2023-05-21T06:46:50.099Z,29.80
2023-05-21T06:47:50.167Z,29.76
2023-05-21T06:48:50.146Z,29.71
2023-05-21T06:49:50.174Z,29.71
2023-05-21T06:50:50.179Z,29.69
2023-05-21T06:51:50.195Z,29.70
2023-05-21T06:52:50.202Z,29.77
2023-05-21T06:53:50.223Z,29.79
2023-05-21T06:54:50.241Z,29.69
2023-05-21T06:55:50.241Z,29.68
2023-05-21T06:56:50.260Z,29.68
2023-05-21T06:57:50.284Z,29.73
2023-05-21T06:58:50.300Z,29.68
2023-05-21T06:59:50.313Z,29.69
2023-05-21T07:00:50.358Z,29.66
2023-05-21T07:01:50.336Z,29.80
2023-05-21T07:02:50.463Z,29.73
2023-05-21T07:03:50.359Z,29.68
2023-05-21T07:04:50.410Z,29.69
2023-05-21T07:05:50.425Z,29.72
2023-05-21T07:06:50.445Z,29.75
2023-05-21T07:07:50.499Z,29.69
2023-05-21T07:08:50.562Z,29.72
2023-05-21T07:09:50.546Z,29.84
2023-05-21T07:10:50.597Z,29.75
2023-05-21T07:11:50.651Z,29.72
2023-05-21T07:12:50.695Z,29.82
2023-05-21T07:13:50.733Z,29.77
2023-05-21T07:14:50.773Z,29.70
2023-05-21T07:15:50.809Z,29.79
2023-05-21T07:16:50.911Z,29.87
2023-05-21T07:17:50.929Z,29.72
2023-05-21T07:18:50.949Z,29.87
2023-05-21T07:19:50.929Z,29.77
2023-05-21T07:20:50.960Z,29.86
2023-05-21T07:21:50.933Z,29.79
2023-05-21T07:22:50.952Z,29.88
2023-05-21T07:23:50.958Z,29.82
2023-05-21T07:24:50.985Z,29.84
2023-05-21T07:25:51.000Z,29.75
2023-05-21T07:26:51.010Z,29.83
2023-05-21T07:27:51.020Z,29.90
2023-05-21T07:28:51.031Z,29.89
2023-05-21T07:29:51.041Z,29.80
2023-05-21T07:30:51.090Z,29.82
2023-05-21T07:31:51.064Z,29.84
2023-05-21T07:32:51.205Z,29.90
2023-05-21T07:33:51.208Z,29.80
2023-05-21T07:34:54.111Z,29.77
2023-05-21T07:35:51.263Z,29.87
2023-05-21T07:36:51.260Z,29.81
2023-05-21T07:37:51.288Z,29.91
2023-05-21T07:38:51.252Z,29.81
2023-05-21T07:39:51.236Z,29.86
2023-05-21T07:40:51.237Z,29.88
2023-05-21T07:41:51.217Z,29.93
2023-05-21T07:42:51.224Z,29.95
2023-05-21T07:43:51.210Z,29.79
2023-05-21T07:44:51.192Z,29.91
2023-05-21T07:45:51.204Z,29.85
2023-05-21T07:46:51.196Z,29.81
2023-05-21T07:47:51.206Z,29.94
2023-05-21T07:48:51.168Z,29.86
2023-05-21T07:49:51.181Z,29.93
2023-05-21T07:50:51.173Z,29.76
2023-05-21T07:51:51.169Z,29.93
2023-05-21T07:52:51.164Z,29.84
2023-05-21T07:53:51.866Z,29.87
2023-05-21T07:54:51.130Z,29.79
2023-05-21T07:55:51.126Z,29.77
2023-05-21T07:56:51.120Z,29.78
2023-05-21T07:57:51.116Z,29.76
2023-05-21T07:58:51.144Z,29.76
2023-05-21T07:59:51.143Z,29.74
2023-05-21T08:00:51.133Z,29.78
2023-05-21T08:01:51.091Z,29.87
2023-05-21T08:02:51.130Z,29.75
2023-05-21T08:03:51.259Z,29.73
2023-05-21T08:04:51.113Z,29.73
2023-05-21T08:05:51.131Z,29.73
2023-05-21T08:06:51.071Z,29.72
2023-05-21T08:07:51.055Z,29.81
2023-05-21T08:08:51.059Z,29.86
2023-05-21T08:09:51.049Z,29.83
2023-05-21T08:10:51.036Z,29.84
2023-05-21T08:11:51.026Z,29.80
2023-05-21T08:12:51.054Z,29.79
2023-05-21T08:13:51.035Z,29.75
2023-05-21T08:14:51.072Z,29.74
2023-05-21T08:15:52.845Z,29.75
2023-05-21T08:16:51.169Z,29.75
2023-05-21T08:17:51.255Z,29.73
2023-05-21T08:18:51.330Z,29.72
2023-05-21T08:19:51.292Z,29.75
2023-05-21T08:20:51.357Z,29.68
2023-05-21T08:21:52.844Z,29.71
2023-05-21T08:22:51.447Z,29.70
2023-05-21T08:23:51.480Z,29.67
2023-05-21T08:24:51.555Z,29.75
2023-05-21T08:25:51.617Z,29.70
2023-05-21T08:26:51.665Z,29.71
2023-05-21T08:27:52.515Z,29.71
2023-05-21T08:28:51.802Z,29.66
2023-05-21T08:29:51.854Z,29.65
2023-05-21T08:30:51.934Z,29.66
2023-05-21T08:31:52.010Z,29.68
2023-05-21T08:32:52.135Z,29.62
2023-05-21T08:33:52.096Z,29.62
2023-05-21T08:34:52.154Z,29.65
2023-05-21T08:35:52.221Z,29.64
2023-05-21T08:36:52.369Z,29.63
2023-05-21T08:37:52.333Z,29.61
2023-05-21T08:38:52.387Z,29.58
2023-05-21T08:39:52.487Z,29.59
2023-05-21T08:40:52.524Z,29.55
2023-05-21T08:41:52.569Z,29.55
2023-05-21T08:42:52.652Z,29.55
2023-05-21T08:43:54.843Z,29.54
2023-05-21T08:44:52.734Z,29.51
2023-05-21T08:45:52.799Z,29.51
2023-05-21T08:46:52.841Z,29.49
2023-05-21T08:47:52.897Z,29.48
2023-05-21T08:48:52.935Z,29.53
2023-05-21T08:49:52.986Z,29.45
2023-05-21T08:50:53.059Z,29.45
2023-05-21T08:51:53.087Z,29.47
2023-05-21T08:52:53.158Z,29.47
2023-05-21T08:53:53.203Z,29.48
2023-05-21T08:54:53.238Z,29.43
2023-05-21T08:55:53.288Z,29.46
2023-05-21T08:56:53.334Z,29.42
2023-05-21T08:57:53.362Z,29.40
2023-05-21T08:58:53.384Z,29.34
2023-05-21T08:59:53.443Z,29.34
2023-05-21T09:00:53.507Z,29.37
2023-05-21T09:01:53.624Z,29.34
2023-05-21T09:02:53.582Z,29.33
2023-05-21T09:03:57.114Z,29.36
2023-05-21T09:04:54.604Z,29.34
2023-05-21T09:05:53.585Z,29.30
2023-05-21T09:06:53.586Z,29.32
2023-05-21T09:07:53.568Z,29.31
2023-05-21T09:08:53.549Z,29.26
2023-05-21T09:09:53.535Z,29.24
2023-05-21T09:10:53.550Z,29.30
2023-05-21T09:11:53.560Z,29.26
2023-05-21T09:12:53.524Z,29.20
2023-05-21T09:13:53.513Z,29.23
2023-05-21T09:14:53.542Z,29.19
2023-05-21T09:15:53.502Z,29.21
2023-05-21T09:16:53.537Z,29.14
2023-05-21T09:17:53.521Z,29.13
2023-05-21T09:18:53.542Z,29.14
2023-05-21T09:19:53.525Z,29.08
2023-05-21T09:20:53.547Z,29.14
2023-05-21T09:21:53.575Z,29.06
2023-05-21T09:22:53.611Z,29.06
2023-05-21T09:23:53.628Z,29.05
2023-05-21T09:24:53.670Z,29.06
2023-05-21T09:25:53.706Z,29.01
2023-05-21T09:26:53.695Z,29.04
2023-05-21T09:27:53.728Z,29.00
2023-05-21T09:28:53.762Z,29.01
2023-05-21T09:29:53.782Z,29.02
2023-05-21T09:30:53.784Z,28.94
2023-05-21T09:31:53.827Z,28.95
2023-05-21T09:32:53.882Z,28.95
2023-05-21T09:33:53.847Z,28.94
2023-05-21T09:34:53.868Z,28.91
2023-05-21T09:35:53.877Z,28.88
2023-05-21T09:36:53.875Z,28.88
2023-05-21T09:37:53.916Z,28.90
2023-05-21T09:38:53.903Z,28.82
2023-05-21T09:39:53.925Z,28.81
2023-05-21T09:40:53.933Z,28.73
2023-05-21T09:41:53.946Z,28.74
2023-05-21T09:42:53.975Z,28.77
2023-05-21T09:43:53.987Z,28.74
2023-05-21T09:44:54.047Z,28.72
2023-05-21T09:45:54.091Z,28.70
2023-05-21T09:46:54.091Z,28.72
2023-05-21T09:47:54.034Z,28.70
2023-05-21T09:48:54.043Z,28.62
2023-05-21T09:49:54.039Z,28.67
2023-05-21T09:50:54.073Z,28.65
2023-05-21T09:51:54.071Z,28.58
2023-05-21T09:52:54.059Z,28.60
2023-05-21T09:53:54.082Z,28.58
2023-05-21T09:54:54.114Z,28.58
2023-05-21T09:55:54.118Z,28.56
2023-05-21T09:56:54.256Z,28.54
2023-05-21T09:57:54.121Z,28.50
2023-05-21T09:58:54.141Z,28.42
2023-05-21T09:59:54.186Z,28.42
2023-05-21T10:00:54.153Z,28.52
2023-05-21T10:01:54.184Z,28.49
2023-05-21T10:02:54.210Z,28.47
2023-05-21T10:03:54.172Z,28.44
2023-05-21T10:04:54.212Z,28.42
2023-05-21T10:05:54.161Z,28.40
2023-05-21T10:06:54.168Z,28.44
2023-05-21T10:07:54.176Z,28.32
2023-05-21T10:08:54.166Z,28.41
2023-05-21T10:09:54.190Z,28.41
2023-05-21T10:10:54.193Z,28.41
2023-05-21T10:11:54.173Z,28.39
2023-05-21T10:12:54.182Z,28.40
2023-05-21T10:13:54.192Z,28.37
2023-05-21T10:14:54.179Z,28.31
2023-05-21T10:15:54.209Z,28.24
2023-05-21T10:16:54.212Z,28.30
2023-05-21T10:17:54.290Z,28.34
2023-05-21T10:18:54.232Z,28.30
2023-05-21T10:19:54.163Z,28.30
2023-05-21T10:20:54.206Z,28.27
2023-05-21T10:21:54.175Z,28.25
2023-05-21T10:22:54.155Z,28.24
2023-05-21T10:23:54.173Z,28.22
2023-05-21T10:24:54.167Z,28.22
2023-05-21T10:25:54.167Z,28.22
2023-05-21T10:26:54.165Z,28.24
2023-05-21T10:27:54.162Z,28.15
2023-05-21T10:28:54.158Z,28.20
2023-05-21T10:29:54.165Z,28.18
2023-05-21T10:30:54.158Z,28.19
2023-05-21T10:31:54.196Z,28.20
2023-05-21T10:32:54.289Z,28.14
2023-05-21T10:33:54.167Z,28.20
2023-05-21T10:34:54.165Z,28.14
2023-05-21T10:35:54.171Z,28.07
2023-05-21T10:36:54.140Z,28.03
2023-05-21T10:37:54.142Z,28.03
2023-05-21T10:38:54.137Z,27.99
2023-05-21T10:39:54.138Z,27.97
2023-05-21T10:40:54.153Z,27.89
2023-05-21T10:41:55.024Z,28.00
2023-05-21T10:42:54.147Z,27.93
2023-05-21T10:43:54.130Z,27.93
2023-05-21T10:44:54.126Z,27.92
2023-05-21T10:45:54.219Z,27.88
2023-05-21T10:46:54.150Z,27.87
2023-05-21T10:47:54.576Z,27.81
2023-05-21T10:48:54.145Z,27.79
2023-05-21T10:49:54.152Z,27.75
2023-05-21T10:50:54.170Z,27.80
2023-05-21T10:51:54.163Z,27.82
2023-05-21T10:52:54.138Z,27.72
2023-05-21T10:53:54.157Z,27.70
2023-05-21T10:54:54.143Z,27.68
2023-05-21T10:55:54.158Z,27.64
2023-05-21T10:56:54.264Z,27.63
2023-05-21T10:57:54.157Z,27.70
2023-05-21T10:58:54.152Z,27.72
2023-05-21T10:59:54.155Z,27.62
2023-05-21T11:00:54.191Z,27.58
2023-05-21T11:01:54.188Z,27.50
2023-05-21T11:02:54.209Z,27.52
2023-05-21T11:03:54.231Z,27.50
2023-05-21T11:04:54.188Z,27.55
2023-05-21T11:05:54.211Z,27.43
2023-05-21T11:06:54.204Z,27.47
2023-05-21T11:07:54.210Z,27.34
2023-05-21T11:08:55.609Z,27.47
2023-05-21T11:09:54.240Z,27.41
2023-05-21T11:10:54.272Z,27.44
2023-05-21T11:11:54.236Z,27.43
2023-05-21T11:12:54.247Z,27.31
2023-05-21T11:13:54.276Z,27.34
2023-05-21T11:14:54.266Z,27.31
2023-05-21T11:15:54.290Z,27.27
2023-05-21T11:16:54.357Z,27.27
2023-05-21T11:17:54.345Z,27.27
2023-05-21T11:18:54.340Z,27.26
2023-05-21T11:19:54.360Z,27.22
2023-05-21T11:20:54.351Z,27.25
2023-05-21T11:21:54.365Z,27.16
2023-05-21T11:22:54.330Z,27.15
2023-05-21T11:23:54.335Z,27.19
2023-05-21T11:24:54.327Z,27.12
2023-05-21T11:25:54.328Z,27.12
2023-05-21T11:26:54.324Z,27.04
2023-05-21T11:27:54.305Z,27.01
2023-05-21T11:28:54.298Z,27.04
2023-05-21T11:29:54.283Z,27.03
2023-05-21T11:30:54.344Z,26.95
2023-05-21T11:31:54.290Z,26.98
2023-05-21T11:32:54.352Z,26.95
2023-05-21T11:33:54.263Z,26.95
2023-05-21T11:34:54.250Z,26.92
2023-05-21T11:35:54.269Z,26.90
2023-05-21T11:36:54.284Z,26.92
2023-05-21T11:37:54.254Z,26.88
2023-05-21T11:38:54.216Z,26.79
2023-05-21T11:39:54.212Z,26.87
2023-05-21T11:40:54.225Z,26.87
2023-05-21T11:41:54.219Z,26.76
2023-05-21T11:42:54.229Z,26.81
2023-05-21T11:43:54.210Z,26.66
2023-05-21T11:44:54.199Z,26.70
2023-05-21T11:45:54.177Z,26.73
2023-05-21T11:46:54.320Z,26.79
2023-05-21T11:47:54.213Z,26.78
2023-05-21T11:48:54.168Z,26.71
2023-05-21T11:49:54.160Z,26.76
2023-05-21T11:50:54.175Z,26.70
2023-05-21T11:51:54.140Z,26.60
2023-05-21T11:52:54.165Z,26.79
2023-05-21T11:53:54.170Z,26.71
2023-05-21T11:54:54.192Z,26.74
2023-05-21T11:55:54.199Z,26.66
2023-05-21T11:56:54.212Z,26.59
2023-05-21T11:57:54.237Z,26.62
2023-05-21T11:58:54.248Z,26.57
2023-05-21T11:59:54.271Z,26.62
2023-05-21T12:00:54.292Z,26.51
2023-05-21T12:01:54.296Z,26.53
2023-05-21T12:02:54.403Z,26.61
2023-05-21T12:03:54.380Z,26.49
2023-05-21T12:04:54.348Z,26.45
2023-05-21T12:05:54.425Z,26.55
2023-05-21T12:06:54.380Z,26.50
2023-05-21T12:07:54.374Z,26.42
2023-05-21T12:08:54.380Z,26.40
2023-05-21T12:09:54.431Z,26.40
2023-05-21T12:10:54.445Z,26.37
2023-05-21T12:11:54.446Z,26.41
2023-05-21T12:12:56.218Z,26.40
2023-05-21T12:13:54.503Z,26.39
2023-05-21T12:14:54.438Z,26.41
2023-05-21T12:15:54.479Z,26.39
2023-05-21T12:16:54.510Z,26.33
2023-05-21T12:17:54.516Z,26.31
2023-05-21T12:18:54.482Z,26.34
2023-05-21T12:19:54.428Z,26.32
2023-05-21T12:20:54.436Z,26.28
2023-05-21T12:21:54.435Z,26.33
2023-05-21T12:22:54.474Z,26.33
2023-05-21T12:23:54.400Z,26.30
2023-05-21T12:24:54.398Z,26.31
2023-05-21T12:25:54.440Z,26.26
2023-05-21T12:26:54.399Z,26.25
2023-05-21T12:27:54.404Z,26.27
2023-05-21T12:28:54.379Z,26.26
2023-05-21T12:29:54.361Z,26.26
2023-05-21T12:30:54.362Z,26.21
2023-05-21T12:31:54.447Z,26.30
2023-05-21T12:32:54.396Z,26.30
2023-05-21T12:33:54.325Z,26.23
2023-05-21T12:34:54.349Z,26.26
2023-05-21T12:35:54.483Z,26.23
2023-05-21T12:36:54.336Z,26.23
2023-05-21T12:37:54.316Z,26.23
2023-05-21T12:38:54.307Z,26.24
2023-05-21T12:39:54.301Z,26.20
2023-05-21T12:40:54.290Z,26.19
2023-05-21T12:41:54.271Z,26.22
2023-05-21T12:42:54.281Z,26.17
2023-05-21T12:43:54.276Z,26.17
2023-05-21T12:44:54.281Z,26.17
2023-05-21T12:45:54.271Z,26.21
2023-05-21T12:46:54.255Z,26.19
2023-05-21T12:47:54.301Z,26.17
2023-05-21T12:48:54.250Z,26.15
2023-05-21T12:49:55.375Z,26.12
2023-05-21T12:50:54.216Z,26.12
2023-05-21T12:51:54.226Z,26.17
2023-05-21T12:52:54.219Z,26.14
2023-05-21T12:53:54.186Z,26.08